Time;durP1;ratioP1;P1;durP2;ratioP2;P2;SDS_P1;SDS_P2;PMS_P1;PMS_P2;Temp;Humidity;BMP_temperature;BMP_pressure;BME280_temperature;BME280_humidity;BME280_pressure;Samples;Min_cycle;Max_cycle;Signal;HPM_P1;HPM_P2
2023/09/25 00:00:43;;;;;;;2.63;2.22;;;11.10;99.90;;;;;;5029050;28;20049;-64
2023/09/25 00:03:09;;;;;;;3.25;2.47;;;11.10;99.90;;;;;;5029239;28;20054;-64
2023/09/25 00:05:35;;;;;;;5.15;2.45;;;11.10;99.90;;;;;;5028489;28;20089;-65
2023/09/25 00:08:00;;;;;;;5.25;2.30;;;11.10;99.90;;;;;;5029240;28;20045;-64
2023/09/25 00:10:26;;;;;;;4.53;2.72;;;11.00;99.90;;;;;;5045215;28;20120;-65
2023/09/25 00:12:52;;;;;;;4.28;2.65;;;11.10;99.90;;;;;;5049359;28;20076;-64
2023/09/25 00:15:18;;;;;;;4.00;2.97;;;11.10;99.90;;;;;;5048666;28;20033;-64
2023/09/25 00:17:43;;;;;;;3.88;2.55;;;11.10;99.90;;;;;;5049379;28;20037;-65
2023/09/25 00:20:10;;;;;;;5.40;3.10;;;11.10;99.90;;;;;;5028866;28;20060;-64
2023/09/25 00:22:37;;;;;;;4.63;2.42;;;11.10;99.90;;;;;;5027762;28;20049;-65
2023/09/25 00:25:03;;;;;;;5.28;2.92;;;11.10;99.90;;;;;;5029234;28;20231;-65
2023/09/25 00:27:31;;;;;;;4.40;2.78;;;11.20;99.90;;;;;;5029451;28;20068;-64
2023/09/25 00:29:57;;;;;;;4.90;3.40;;;11.20;99.90;;;;;;5030306;28;20076;-64
2023/09/25 00:32:23;;;;;;;4.90;2.97;;;11.30;99.90;;;;;;5029031;28;20382;-64
2023/09/25 00:34:48;;;;;;;4.45;2.97;;;11.30;99.90;;;;;;5037699;28;20045;-64
2023/09/25 00:37:14;;;;;;;4.28;3.20;;;11.40;99.90;;;;;;5048597;28;20189;-65
2023/09/25 00:39:42;;;;;;;4.55;3.28;;;11.40;99.90;;;;;;5032037;28;20382;-64
2023/09/25 00:42:08;;;;;;;3.47;2.90;;;11.40;99.90;;;;;;5048866;28;20057;-65
2023/09/25 00:44:33;;;;;;;5.10;3.05;;;11.50;99.90;;;;;;5048550;28;20040;-64
2023/09/25 00:46:59;;;;;;;7.97;2.83;;;11.50;99.90;;;;;;5048335;28;20037;-64
2023/09/25 00:49:26;;;;;;;4.40;3.47;;;11.50;99.90;;;;;;5048020;28;20106;-65
2023/09/25 00:51:53;;;;;;;4.22;3.20;;;11.40;99.90;;;;;;5036392;28;20098;-65
2023/09/25 00:54:19;;;;;;;6.72;3.65;;;11.40;99.90;;;;;;5030323;28;20130;-65
2023/09/25 00:56:46;;;;;;;5.88;3.20;;;11.40;99.90;;;;;;5028832;28;20513;-64
2023/09/25 00:59:12;;;;;;;4.95;2.90;;;11.40;99.90;;;;;;5028698;28;20052;-64
2023/09/25 01:01:38;;;;;;;6.13;2.83;;;11.30;99.90;;;;;;5027779;28;20049;-64
2023/09/25 01:04:04;;;;;;;5.10;3.00;;;11.30;99.90;;;;;;5028518;28;20128;-64
2023/09/25 01:06:29;;;;;;;5.75;3.47;;;11.30;99.90;;;;;;5024591;28;20053;-64
2023/09/25 01:08:55;;;;;;;5.63;3.10;;;11.30;99.90;;;;;;5039947;28;20045;-65
2023/09/25 01:11:22;;;;;;;5.95;3.53;;;11.30;99.90;;;;;;5031758;28;20048;-64
2023/09/25 01:13:48;;;;;;;3.65;2.78;;;11.30;99.90;;;;;;5048453;28;20170;-64
2023/09/25 01:16:13;;;;;;;4.57;2.85;;;11.20;99.90;;;;;;5047518;28;20557;-64
2023/09/25 01:18:39;;;;;;;7.85;2.97;;;11.20;99.90;;;;;;5048207;28;20047;-64
2023/09/25 01:21:06;;;;;;;3.38;2.58;;;11.20;99.90;;;;;;5046686;28;20442;-64
2023/09/25 01:23:31;;;;;;;3.60;2.53;;;11.20;99.90;;;;;;5047463;28;20045;-64
2023/09/25 01:25:58;;;;;;;5.47;3.25;;;11.20;99.90;;;;;;5048147;28;20518;-65
2023/09/25 01:28:23;;;;;;;5.15;2.90;;;11.20;99.90;;;;;;5048463;28;20171;-64
2023/09/25 01:30:49;;;;;;;4.88;2.83;;;11.20;99.90;;;;;;5048868;28;20167;-64
2023/09/25 01:33:15;;;;;;;4.30;2.97;;;11.20;99.90;;;;;;5048007;28;20420;-65
2023/09/25 01:35:41;;;;;;;3.65;2.83;;;11.20;99.90;;;;;;5046983;28;20052;-64
2023/09/25 01:38:08;;;;;;;6.35;2.95;;;11.20;99.90;;;;;;5041299;28;20037;-65
2023/09/25 01:40:33;;;;;;;4.18;3.17;;;11.20;99.90;;;;;;5027945;28;20045;-64
2023/09/25 01:42:59;;;;;;;4.57;3.25;;;11.20;99.90;;;;;;5029927;28;20051;-65
2023/09/25 01:45:25;;;;;;;4.82;3.10;;;11.10;99.90;;;;;;5027290;28;20486;-64
2023/09/25 01:47:52;;;;;;;7.35;3.72;;;11.10;99.90;;;;;;5028083;28;20080;-64
2023/09/25 01:50:19;;;;;;;6.55;3.20;;;11.10;99.90;;;;;;5025222;28;20037;-65
2023/09/25 01:52:47;;;;;;;3.70;2.90;;;11.10;99.90;;;;;;5026729;28;20095;-65
2023/09/25 01:55:14;;;;;;;12.40;3.30;;;11.10;99.90;;;;;;5060262;28;20033;-64
2023/09/25 01:57:39;;;;;;;4.95;3.08;;;11.00;99.90;;;;;;5048417;28;20033;-64
2023/09/25 02:00:09;;;;;;;4.30;3.05;;;11.00;99.90;;;;;;5047789;28;20037;-66
2023/09/25 02:02:40;;;;;;;3.67;2.75;;;11.00;99.90;;;;;;5047544;28;20056;-64
2023/09/25 02:05:06;;;;;;;;;;;10.90;99.90;;;;;;5051439;28;20049;-64
2023/09/25 02:07:32;;;;;;;5.78;3.05;;;10.90;99.90;;;;;;5052347;28;19924;-65
2023/09/25 02:09:58;;;;;;;4.13;3.28;;;10.90;99.90;;;;;;5051780;28;20161;-65
2023/09/25 02:12:23;;;;;;;4.68;3.25;;;10.80;99.90;;;;;;5053390;28;20095;-64
2023/09/25 02:14:51;;;;;;;5.40;3.10;;;10.80;99.90;;;;;;5051382;28;20041;-65
2023/09/25 02:17:16;;;;;;;4.55;3.13;;;10.80;99.90;;;;;;5051984;28;20045;-65
2023/09/25 02:19:42;;;;;;;4.30;3.08;;;10.70;99.90;;;;;;5049581;28;20099;-66
2023/09/25 02:22:07;;;;;;;3.63;2.67;;;10.70;99.90;;;;;;5050231;28;20381;-65
2023/09/25 02:24:37;;;;;;;6.60;3.40;;;10.70;99.90;;;;;;5053547;28;20438;-65
2023/09/25 02:27:02;;;;;;;5.03;3.80;;;10.70;99.90;;;;;;5052147;28;20056;-65
2023/09/25 02:29:28;;;;;;;3.72;3.00;;;10.60;99.90;;;;;;5042563;28;20053;-65
2023/09/25 02:31:54;;;;;;;5.85;3.20;;;10.60;99.90;;;;;;5031577;28;20453;-66
2023/09/25 02:34:20;;;;;;;3.83;2.95;;;10.60;99.90;;;;;;5031760;28;20041;-65
2023/09/25 02:36:46;;;;;;;4.18;2.67;;;10.60;99.90;;;;;;5028198;28;20080;-64
2023/09/25 02:39:13;;;;;;;7.03;3.63;;;10.60;99.90;;;;;;5031725;28;20038;-65
2023/09/25 02:41:40;;;;;;;6.10;3.40;;;10.60;99.90;;;;;;5015041;28;20037;-65
2023/09/25 02:44:05;;;;;;;4.35;3.08;;;10.60;99.90;;;;;;5033000;28;20033;-65
2023/09/25 02:46:31;;;;;;;5.35;3.00;;;10.50;99.90;;;;;;5036501;28;20099;-64
2023/09/25 02:48:57;;;;;;;4.78;3.22;;;10.50;99.90;;;;;;5051337;28;20059;-65
2023/09/25 02:51:22;;;;;;;6.82;3.65;;;10.50;99.90;;;;;;5048627;28;20051;-65
2023/09/25 02:53:48;;;;;;;4.95;3.00;;;10.50;99.90;;;;;;5051622;28;20063;-65
2023/09/25 02:56:14;;;;;;;3.83;2.83;;;10.50;99.90;;;;;;5051584;28;20056;-64
2023/09/25 02:58:39;;;;;;;4.90;2.95;;;10.60;99.90;;;;;;5051431;28;20040;-65
2023/09/25 03:01:05;;;;;;;5.63;3.20;;;10.60;99.90;;;;;;5050367;28;20156;-64
2023/09/25 03:03:30;;;;;;;6.47;3.15;;;10.50;99.90;;;;;;5050545;28;20053;-64
2023/09/25 03:05:56;;;;;;;3.35;2.90;;;10.50;99.90;;;;;;5048237;28;20047;-64
2023/09/25 03:08:22;;;;;;;5.72;3.17;;;10.50;99.90;;;;;;5049934;28;20094;-65
2023/09/25 03:10:47;;;;;;;4.03;2.70;;;10.50;99.90;;;;;;5052144;28;20170;-64
2023/09/25 03:13:13;;;;;;;4.30;2.95;;;10.50;99.90;;;;;;5051323;28;20040;-65
2023/09/25 03:15:39;;;;;;;5.32;3.50;;;10.50;99.90;;;;;;5048914;28;20051;-64
2023/09/25 03:18:04;;;;;;;3.28;2.60;;;10.50;99.90;;;;;;5052649;28;20041;-64
2023/09/25 03:20:30;;;;;;;6.00;2.95;;;10.50;99.90;;;;;;5030145;28;20037;-65
2023/09/25 03:22:56;;;;;;;7.22;3.33;;;10.50;99.90;;;;;;5030135;28;20030;-65
2023/09/25 03:25:22;;;;;;;5.07;3.20;;;10.60;99.90;;;;;;5030830;28;20085;-64
2023/09/25 03:27:49;;;;;;;5.75;3.10;;;10.60;99.90;;;;;;5030817;28;20536;-65
2023/09/25 03:30:15;;;;;;;4.18;3.00;;;10.50;99.90;;;;;;5030169;28;20112;-65
2023/09/25 03:32:42;;;;;;;6.03;2.92;;;10.50;99.90;;;;;;5030545;28;20086;-65
2023/09/25 03:35:08;;;;;;;5.57;3.25;;;10.50;99.90;;;;;;5028219;28;20431;-65
2023/09/25 03:37:33;;;;;;;3.63;2.90;;;10.50;99.90;;;;;;5029168;28;20049;-65
2023/09/25 03:39:59;;;;;;;4.63;2.92;;;10.50;99.90;;;;;;5013617;28;20056;-65
2023/09/25 03:42:25;;;;;;;5.43;3.13;;;10.50;99.90;;;;;;5030304;28;20547;-64
2023/09/25 03:44:51;;;;;;;5.15;2.97;;;10.50;99.90;;;;;;5040029;28;20095;-65
2023/09/25 03:47:18;;;;;;;6.15;3.35;;;10.50;99.90;;;;;;5049760;28;20060;-64
2023/09/25 03:49:44;;;;;;;4.43;2.97;;;10.40;99.90;;;;;;5047248;28;20041;-65
2023/09/25 03:52:10;;;;;;;6.43;3.40;;;10.50;99.90;;;;;;5050054;28;20369;-64
2023/09/25 03:54:38;;;;;;;5.28;3.13;;;10.50;99.90;;;;;;5035776;28;20546;-64
2023/09/25 03:57:04;;;;;;;4.68;3.05;;;10.50;99.90;;;;;;5031233;28;20041;-65
2023/09/25 03:59:30;;;;;;;5.38;3.65;;;10.40;99.90;;;;;;5030852;28;20041;-65
2023/09/25 04:01:56;;;;;;;5.63;3.55;;;10.40;99.90;;;;;;5028762;28;20450;-65
2023/09/25 04:04:21;;;;;;;7.15;3.10;;;10.40;99.90;;;;;;5013279;28;20099;-65
2023/09/25 04:06:47;;;;;;;6.63;3.90;;;10.40;99.90;;;;;;5025455;28;20351;-64
2023/09/25 04:09:12;;;;;;;5.78;2.97;;;10.40;99.90;;;;;;5031271;28;20366;-64
2023/09/25 04:11:38;;;;;;;6.20;3.75;;;10.40;99.90;;;;;;5049537;28;20111;-65
2023/09/25 04:14:06;;;;;;;6.22;3.45;;;10.40;99.90;;;;;;5049552;28;20045;-65
2023/09/25 04:16:33;;;;;;;4.82;3.10;;;10.40;99.90;;;;;;5048752;28;20501;-65
2023/09/25 04:18:59;;;;;;;5.07;3.75;;;10.40;99.90;;;;;;5049341;28;20504;-64
2023/09/25 04:21:24;;;;;;;5.47;3.40;;;10.50;99.90;;;;;;5046331;28;20163;-64
2023/09/25 04:23:50;;;;;;;5.43;3.75;;;10.40;99.90;;;;;;5049420;28;20065;-64
2023/09/25 04:26:16;;;;;;;5.78;3.58;;;10.40;99.90;;;;;;5048933;28;20451;-65
2023/09/25 04:28:42;;;;;;;5.32;3.97;;;10.40;99.90;;;;;;5032937;28;20056;-64
2023/09/25 04:31:10;;;;;;;6.00;3.20;;;10.40;99.90;;;;;;5050244;28;20376;-65
2023/09/25 04:33:36;;;;;;;4.25;3.00;;;10.40;99.90;;;;;;5049084;28;20428;-65
2023/09/25 04:36:02;;;;;;;3.30;2.90;;;10.40;99.90;;;;;;5046104;28;20037;-64
2023/09/25 04:38:28;;;;;;;4.28;2.95;;;10.50;99.90;;;;;;5048228;28;20051;-65
2023/09/25 04:40:54;;;;;;;3.97;2.70;;;10.70;99.90;;;;;;5032343;28;20029;-64
2023/09/25 04:43:21;;;;;;;5.20;2.80;;;10.80;99.90;;;;;;5044362;28;20119;-66
2023/09/25 04:45:47;;;;;;;4.22;2.70;;;10.80;99.90;;;;;;5046343;28;20051;-65
2023/09/25 04:48:13;;;;;;;3.85;2.55;;;10.90;99.90;;;;;;5048917;28;20151;-65
2023/09/25 04:50:40;;;;;;;3.22;2.35;;;11.00;99.90;;;;;;5028916;28;20098;-65
2023/09/25 04:53:08;;;;;;;3.65;2.20;;;11.20;99.90;;;;;;5031002;28;20171;-65
2023/09/25 04:55:34;;;;;;;4.45;2.65;;;11.30;99.90;;;;;;5050084;28;20061;-64
2023/09/25 04:57:59;;;;;;;5.22;2.78;;;11.30;99.90;;;;;;5048978;28;20107;-64
2023/09/25 05:00:26;;;;;;;3.50;2.17;;;11.40;99.90;;;;;;5039751;28;20061;-64
2023/09/25 05:02:53;;;;;;;4.28;2.53;;;11.50;99.90;;;;;;5012295;28;20449;-65
2023/09/25 05:05:19;;;;;;;5.55;2.80;;;11.60;99.90;;;;;;5026705;28;20599;-65
2023/09/25 05:07:47;;;;;;;4.13;2.53;;;11.60;99.90;;;;;;5027415;28;20160;-65
2023/09/25 05:10:14;;;;;;;4.53;2.70;;;11.70;99.90;;;;;;5027986;28;20409;-65
2023/09/25 05:12:41;;;;;;;4.55;2.70;;;11.70;99.90;;;;;;5028114;28;20375;-64
2023/09/25 05:15:07;;;;;;;3.15;2.20;;;11.70;99.90;;;;;;5027972;28;20041;-64
2023/09/25 05:17:37;;;;;;;4.47;2.70;;;11.70;99.90;;;;;;5041284;28;20580;-64
2023/09/25 05:20:16;;;;;;;3.20;2.40;;;11.80;99.90;;;;;;5047304;28;20691;-64
2023/09/25 05:22:44;;;;;;;3.70;2.40;;;11.80;99.90;;;;;;5047251;28;20060;-65
2023/09/25 05:25:12;;;;;;;3.22;2.38;;;11.80;99.90;;;;;;5050109;28;20211;-64
2023/09/25 05:27:39;;;;;;;6.80;2.72;;;11.80;99.90;;;;;;5050375;28;20418;-65
2023/09/25 05:30:09;;;;;;;7.55;2.88;;;11.80;99.90;;;;;;5048246;28;20104;-65
2023/09/25 05:32:36;;;;;;;3.27;2.50;;;11.80;99.90;;;;;;5047589;28;20453;-65
2023/09/25 05:35:02;;;;;;;3.90;2.63;;;12.00;99.90;;;;;;5045675;28;20131;-66
2023/09/25 05:37:27;;;;;;;3.90;2.97;;;11.90;99.90;;;;;;5046594;28;20128;-66
2023/09/25 05:39:53;;;;;;;4.45;2.50;;;11.90;99.90;;;;;;5049125;28;20043;-65
2023/09/25 05:42:18;;;;;;;3.78;2.63;;;11.90;99.90;;;;;;5048478;28;20041;-65
2023/09/25 05:44:44;;;;;;;5.13;2.47;;;11.90;99.90;;;;;;5047741;28;20404;-65
2023/09/25 05:47:10;;;;;;;5.32;3.05;;;11.90;99.90;;;;;;5048331;28;20124;-66
2023/09/25 05:49:35;;;;;;;4.35;2.58;;;11.90;99.90;;;;;;5029951;28;20045;-66
2023/09/25 05:52:01;;;;;;;4.85;2.75;;;11.90;99.90;;;;;;5031673;28;20057;-65
2023/09/25 05:54:26;;;;;;;4.75;2.50;;;11.80;99.90;;;;;;5028555;28;20076;-65
2023/09/25 05:56:52;;;;;;;4.15;2.55;;;11.90;99.90;;;;;;5040950;28;20127;-64
2023/09/25 05:59:18;;;;;;;4.43;2.40;;;11.90;99.90;;;;;;5048453;28;20131;-65
2023/09/25 06:01:44;;;;;;;4.72;2.88;;;11.90;99.90;;;;;;5047080;28;20053;-65
2023/09/25 06:04:10;;;;;;;4.00;2.22;;;12.00;99.90;;;;;;5048024;28;20097;-65
2023/09/25 06:06:35;;;;;;;4.70;2.70;;;12.00;99.90;;;;;;5044376;28;20501;-64
2023/09/25 06:09:02;;;;;;;4.97;2.67;;;12.00;99.90;;;;;;5047072;28;20484;-64
2023/09/25 06:11:28;;;;;;;4.47;2.70;;;12.10;99.90;;;;;;5047927;28;20525;-66
2023/09/25 06:13:53;;;;;;;4.15;2.28;;;12.20;99.90;;;;;;5049908;28;20077;-66
2023/09/25 06:16:19;;;;;;;5.82;2.60;;;12.10;99.90;;;;;;5047141;28;20132;-65
2023/09/25 06:18:45;;;;;;;4.55;2.40;;;12.20;99.90;;;;;;5049373;28;20052;-66
2023/09/25 06:21:13;;;;;;;4.00;2.78;;;12.20;99.90;;;;;;5044437;28;20068;-66
2023/09/25 06:23:39;;;;;;;4.07;2.45;;;12.30;99.90;;;;;;5047498;28;20052;-65
2023/09/25 06:26:06;;;;;;;3.70;2.38;;;12.30;99.90;;;;;;5032224;28;20102;-65
2023/09/25 06:28:32;;;;;;;6.68;2.60;;;12.30;99.90;;;;;;5029661;28;20041;-64
2023/09/25 06:30:58;;;;;;;5.80;2.90;;;12.40;99.90;;;;;;5027438;28;20045;-65
2023/09/25 06:33:25;;;;;;;5.20;2.63;;;12.40;99.90;;;;;;5028086;28;20057;-65
2023/09/25 06:35:52;;;;;;;4.25;2.60;;;12.50;99.90;;;;;;5024961;28;20048;-65
2023/09/25 06:38:18;;;;;;;3.05;2.10;;;12.50;99.90;;;;;;5026776;28;20484;-65
2023/09/25 06:40:45;;;;;;;3.90;2.22;;;12.60;99.90;;;;;;5027777;28;20045;-65
2023/09/25 06:43:12;;;;;;;3.17;2.20;;;12.70;99.90;;;;;;5029495;28;20113;-65
2023/09/25 06:45:44;;;;;;;3.30;2.50;;;12.80;99.90;;;;;;5032636;28;20029;-65
2023/09/25 06:48:09;;;;;;;4.63;2.47;;;12.90;99.90;;;;;;5047639;28;20349;-65
2023/09/25 06:50:35;;;;;;;3.78;2.30;;;13.10;99.90;;;;;;5046957;28;20064;-66
2023/09/25 06:53:02;;;;;;;3.28;2.10;;;13.20;99.90;;;;;;5050143;28;20090;-65
2023/09/25 06:55:27;;;;;;;4.45;2.40;;;13.30;99.90;;;;;;5051115;28;20496;-67
2023/09/25 06:57:53;;;;;;;5.18;2.22;;;13.40;99.90;;;;;;5052921;28;20041;-66
2023/09/25 07:00:18;;;;;;;3.75;2.40;;;13.50;99.90;;;;;;5050492;28;20036;-66
2023/09/25 07:02:44;;;;;;;3.03;2.15;;;13.70;99.90;;;;;;5039539;28;20045;-66
2023/09/25 07:05:10;;;;;;;3.70;2.20;;;13.90;99.90;;;;;;5028876;28;20129;-65
2023/09/25 07:07:36;;;;;;;2.60;1.83;;;14.00;99.90;;;;;;5029283;28;20147;-65
2023/09/25 07:10:05;;;;;;;3.60;1.90;;;14.20;99.90;;;;;;5030674;28;20034;-65
2023/09/25 07:12:30;;;;;;;4.93;2.40;;;14.20;99.90;;;;;;5032726;28;20521;-65
2023/09/25 07:14:56;;;;;;;2.72;1.98;;;14.30;99.90;;;;;;5030263;28;20127;-66
2023/09/25 07:17:26;;;;;;;2.90;2.13;;;14.30;99.90;;;;;;5030757;28;20051;-66
2023/09/25 07:19:53;;;;;;;3.38;2.17;;;14.30;99.90;;;;;;5031654;28;20045;-66
2023/09/25 07:22:22;;;;;;;6.00;2.22;;;14.30;99.90;;;;;;5009659;28;21937;-65
2023/09/25 07:24:48;;;;;;;4.88;2.28;;;14.40;99.90;;;;;;5030604;28;20114;-65
2023/09/25 07:27:14;;;;;;;3.28;2.20;;;14.40;99.90;;;;;;5040355;28;20048;-65
2023/09/25 07:29:44;;;;;;;4.70;2.67;;;14.40;99.90;;;;;;5049485;28;20081;-66
2023/09/25 07:32:11;;;;;;;2.58;2.20;;;14.40;99.60;;;;;;5046073;28;20037;-66
2023/09/25 07:34:37;;;;;;;5.80;1.98;;;14.50;99.90;;;;;;5041201;28;20087;-66
2023/09/25 07:37:05;;;;;;;3.67;2.20;;;14.50;99.90;;;;;;5038780;28;20477;-67
2023/09/25 07:39:33;;;;;;;4.40;2.10;;;14.50;99.90;;;;;;5021821;28;20087;-65
2023/09/25 07:41:59;;;;;;;3.38;2.08;;;14.60;99.90;;;;;;5032320;28;20104;-66
2023/09/25 07:44:27;;;;;;;5.35;2.13;;;14.70;99.90;;;;;;5045978;28;20132;-66
2023/09/25 07:46:53;;;;;;;4.13;2.00;;;14.80;99.90;;;;;;5043276;28;20136;-66
2023/09/25 07:49:20;;;;;;;3.50;1.83;;;14.90;99.70;;;;;;5047861;28;20063;-67
2023/09/25 07:51:46;;;;;;;4.95;1.90;;;15.00;99.90;;;;;;5047245;28;20071;-67
2023/09/25 07:54:12;;;;;;;4.32;2.10;;;15.00;99.90;;;;;;5033263;28;20489;-66
2023/09/25 07:56:38;;;;;;;5.55;2.20;;;15.10;99.90;;;;;;5030488;28;20041;-66
2023/09/25 07:59:03;;;;;;;2.50;1.95;;;15.10;99.90;;;;;;5051299;28;20449;-70
2023/09/25 08:01:29;;;;;;;3.20;2.15;;;15.20;99.10;;;;;;5036435;28;20038;-66
2023/09/25 08:03:57;;;;;;;2.25;1.90;;;15.20;99.90;;;;;;5044643;28;20419;-69
2023/09/25 08:06:24;;;;;;;4.05;2.25;;;15.30;97.70;;;;;;5025891;28;20350;-66
2023/09/25 08:08:50;;;;;;;3.42;1.98;;;15.30;99.90;;;;;;5035890;28;20119;-67
2023/09/25 08:11:17;;;;;;;3.55;1.70;;;15.30;99.70;;;;;;5048587;28;20137;-67
2023/09/25 08:13:43;;;;;;;4.07;2.20;;;15.40;99.90;;;;;;5038751;28;20175;-67
2023/09/25 08:16:08;;;;;;;3.10;1.80;;;15.40;99.20;;;;;;5031245;28;20038;-67
2023/09/25 08:18:34;;;;;;;4.32;2.20;;;15.50;99.60;;;;;;5048931;28;20033;-66
2023/09/25 08:21:00;;;;;;;2.60;1.80;;;15.50;99.00;;;;;;5039298;28;20176;-67
2023/09/25 08:23:27;;;;;;;4.43;2.08;;;15.60;98.80;;;;;;5046294;28;20116;-67
2023/09/25 08:25:53;;;;;;;3.03;2.00;;;15.80;98.30;;;;;;5038018;28;20052;-67
2023/09/25 08:28:19;;;;;;;5.45;2.10;;;15.90;98.20;;;;;;5030414;28;20042;-66
2023/09/25 08:30:45;;;;;;;2.83;1.92;;;16.10;97.70;;;;;;5035451;28;20088;-66
2023/09/25 08:33:11;;;;;;;3.15;1.85;;;16.30;96.40;;;;;;5030749;28;20476;-67
2023/09/25 08:35:37;;;;;;;3.97;2.08;;;16.50;97.30;;;;;;5026025;28;20065;-67
2023/09/25 08:38:03;;;;;;;2.50;2.13;;;16.50;95.80;;;;;;5011721;28;20540;-67
2023/09/25 08:40:31;;;;;;;4.53;1.70;;;16.40;95.70;;;;;;5031580;28;20036;-67
2023/09/25 08:42:57;;;;;;;3.97;1.75;;;16.50;94.20;;;;;;5042135;28;20406;-68
2023/09/25 08:45:23;;;;;;;3.25;1.85;;;16.30;94.90;;;;;;5032381;28;20037;-67
2023/09/25 08:47:49;;;;;;;3.45;1.65;;;16.40;95.30;;;;;;5028874;28;20476;-66
2023/09/25 08:50:14;;;;;;;2.80;1.75;;;16.50;95.40;;;;;;5025874;28;20044;-67
2023/09/25 08:52:41;;;;;;;4.13;1.70;;;16.60;95.30;;;;;;5027008;28;20037;-67
2023/09/25 08:55:08;;;;;;;3.28;1.48;;;16.70;95.00;;;;;;5020314;28;20199;-68
2023/09/25 08:57:35;;;;;;;4.13;1.83;;;16.70;91.20;;;;;;5036715;28;20449;-68
2023/09/25 09:00:11;;;;;;;3.03;1.67;;;16.80;93.80;;;;;;5028570;28;20076;-68
2023/09/25 09:02:41;;;;;;;2.22;1.50;;;17.10;93.60;;;;;;5034581;28;20128;-67
2023/09/25 09:05:09;;;;;;;2.65;1.50;;;17.30;91.30;;;;;;5034574;28;20195;-68
2023/09/25 09:07:35;;;;;;;2.85;1.60;;;17.20;91.70;;;;;;5028988;28;20432;-67
2023/09/25 09:10:00;;;;;;;2.60;1.70;;;17.40;91.10;;;;;;5032328;28;20041;-67
2023/09/25 09:12:26;;;;;;;4.13;1.60;;;17.50;92.10;;;;;;5047237;28;20798;-68
2023/09/25 09:14:51;;;;;;;4.10;1.60;;;17.60;91.50;;;;;;5023872;28;20056;-67
2023/09/25 09:17:17;;;;;;;3.08;1.65;;;17.70;90.60;;;;;;5028198;28;20037;-67
2023/09/25 09:19:45;;;;;;;3.17;1.40;;;17.80;90.40;;;;;;5035033;28;20060;-69
2023/09/25 09:22:12;;;;;;;3.90;1.63;;;17.80;85.50;;;;;;5041834;28;20059;-68
2023/09/25 09:24:39;;;;;;;3.50;1.73;;;17.80;86.80;;;;;;5044610;28;20116;-67
2023/09/25 09:27:08;;;;;;;3.10;1.58;;;17.70;86.80;;;;;;5035314;28;20122;-69
2023/09/25 09:29:40;;;;;;;5.03;1.83;;;17.60;84.40;;;;;;5047881;28;20037;-68
2023/09/25 09:32:06;;;;;;;3.65;1.60;;;17.60;84.60;;;;;;5047864;28;20431;-69
2023/09/25 09:34:32;;;;;;;5.57;1.52;;;17.50;79.60;;;;;;5030274;28;20045;-68
2023/09/25 09:36:59;;;;;;;2.47;1.40;;;17.60;86.60;;;;;;5039333;28;20037;-67
2023/09/25 09:39:37;;;;;;;3.50;1.77;;;17.50;87.00;;;;;;5036877;28;20429;-68
2023/09/25 09:42:05;;;;;;;4.80;1.67;;;17.60;87.90;;;;;;5033229;28;20060;-68
2023/09/25 09:44:32;;;;;;;6.28;1.58;;;17.70;85.70;;;;;;5034264;28;20048;-67
2023/09/25 09:47:05;;;;;;;3.72;1.58;;;17.70;85.10;;;;;;5033285;28;20025;-65
2023/09/25 09:49:39;;;;;;;3.40;1.40;;;17.80;85.10;;;;;;5047038;28;20037;-68
2023/09/25 09:52:06;;;;;;;1.85;1.30;;;17.80;83.60;;;;;;5020560;28;20041;-68
2023/09/25 09:54:37;;;;;;;3.90;1.80;;;17.80;84.10;;;;;;5047396;28;20045;-67
2023/09/25 09:57:03;;;;;;;3.92;1.52;;;17.90;79.70;;;;;;5043093;28;20041;-68
2023/09/25 09:59:29;;;;;;;2.92;1.75;;;18.10;83.70;;;;;;5021275;28;20132;-67
2023/09/25 10:01:57;;;;;;;3.35;1.80;;;18.20;81.10;;;;;;5016902;28;20495;-68
2023/09/25 10:04:24;;;;;;;5.53;1.65;;;18.20;82.20;;;;;;5043957;28;20045;-67
2023/09/25 10:07:08;;;;;;;3.92;1.45;;;18.40;82.20;;;;;;5024406;28;20126;-66
2023/09/25 10:09:34;;;;;;;2.20;1.33;;;18.50;80.50;;;;;;5028994;28;20084;-67
2023/09/25 10:12:02;;;;;;;2.65;1.92;;;18.70;82.30;;;;;;5042136;28;20113;-67
2023/09/25 10:14:29;;;;;;;3.20;1.50;;;18.80;82.40;;;;;;5029133;28;20511;-67
2023/09/25 10:17:05;;;;;;;3.30;1.40;;;18.80;80.60;;;;;;5026768;28;20048;-69
2023/09/25 10:19:37;;;;;;;2.80;1.40;;;18.90;78.30;;;;;;5026943;28;20037;-67
2023/09/25 10:22:20;;;;;;;2.28;1.17;;;19.00;77.60;;;;;;5041453;28;20053;-67
2023/09/25 10:25:04;;;;;;;3.47;1.40;;;19.00;80.30;;;;;;5028889;28;20045;-67
2023/09/25 10:27:31;;;;;;;3.72;1.67;;;19.20;77.10;;;;;;5031799;28;20093;-68
2023/09/25 10:30:08;;;;;;;2.05;1.30;;;19.10;78.00;;;;;;5032625;28;20132;-67
2023/09/25 10:32:38;;;;;;;5.15;1.58;;;19.30;78.10;;;;;;5050462;28;20048;-68
2023/09/25 10:35:40;;;;;;;4.10;1.60;;;19.30;76.80;;;;;;5041682;28;20087;-68
2023/09/25 10:38:36;;;;;;;3.13;1.40;;;19.40;77.00;;;;;;5031633;28;20045;-67
2023/09/25 10:41:06;;;;;;;2.78;1.50;;;19.50;73.40;;;;;;5035854;28;20049;-67
2023/09/25 10:43:33;;;;;;;4.32;1.77;;;19.40;76.50;;;;;;5031407;28;20049;-67
2023/09/25 10:45:59;;;;;;;2.72;1.73;;;19.50;75.20;;;;;;5030872;28;20041;-67
2023/09/25 10:48:27;;;;;;;3.92;1.38;;;19.40;73.70;;;;;;5035415;28;20171;-68
2023/09/25 10:50:54;;;;;;;1.83;1.00;;;19.30;72.80;;;;;;5049257;28;20041;-67
2023/09/25 10:53:21;;;;;;;2.30;1.33;;;19.40;74.00;;;;;;5044508;28;20037;-67
2023/09/25 10:55:47;;;;;;;4.40;1.58;;;19.30;72.60;;;;;;5030984;28;20412;-67
2023/09/25 10:58:14;;;;;;;4.88;1.48;;;19.30;74.30;;;;;;5032954;28;20040;-69
2023/09/25 11:00:41;;;;;;;4.15;1.60;;;19.40;74.10;;;;;;5030167;28;20077;-68
2023/09/25 11:03:08;;;;;;;3.50;1.42;;;19.50;73.60;;;;;;5042597;28;20057;-67
2023/09/25 11:05:36;;;;;;;4.30;1.58;;;19.60;74.60;;;;;;5047640;28;20426;-69
2023/09/25 11:08:05;;;;;;;3.05;1.42;;;19.70;74.60;;;;;;5029702;28;20391;-68
2023/09/25 11:10:34;;;;;;;3.58;1.40;;;19.80;74.40;;;;;;5030389;28;20107;-67
2023/09/25 11:13:00;;;;;;;5.25;1.70;;;19.80;71.90;;;;;;5042932;28;20394;-68
2023/09/25 11:15:34;;;;;;;5.15;1.65;;;19.70;72.70;;;;;;5034842;28;20378;-67
2023/09/25 11:18:00;;;;;;;5.00;1.70;;;19.80;73.80;;;;;;5033365;28;20043;-70
2023/09/25 11:20:30;;;;;;;2.42;1.35;;;19.70;72.50;;;;;;5040698;28;20378;-68
2023/09/25 11:23:08;;;;;;;2.30;1.40;;;19.80;74.00;;;;;;5029003;28;20049;-68
2023/09/25 11:25:43;;;;;;;3.47;1.52;;;19.80;74.90;;;;;;5030167;28;20083;-70
2023/09/25 11:28:13;;;;;;;2.80;1.52;;;19.80;71.30;;;;;;5030430;28;20030;-68
2023/09/25 11:30:38;;;;;;;3.25;1.52;;;19.90;72.70;;;;;;5037912;28;20041;-67
2023/09/25 11:33:06;;;;;;;2.97;1.38;;;19.90;73.70;;;;;;5030388;28;20329;-68
2023/09/25 11:35:34;;;;;;;4.65;1.52;;;19.90;73.20;;;;;;5026598;28;20382;-67
2023/09/25 11:38:12;;;;;;;4.68;1.50;;;19.90;73.40;;;;;;5028207;28;20079;-68
2023/09/25 11:40:38;;;;;;;3.45;1.35;;;20.00;72.80;;;;;;5037709;28;20068;-68
2023/09/25 11:43:04;;;;;;;3.22;1.70;;;20.00;73.50;;;;;;5037994;28;20041;-68
2023/09/25 11:45:30;;;;;;;3.75;1.40;;;20.00;73.80;;;;;;5029028;28;20077;-68
2023/09/25 11:47:56;;;;;;;3.15;1.48;;;20.10;74.40;;;;;;5029311;28;20057;-68
2023/09/25 11:50:22;;;;;;;3.08;1.40;;;20.20;74.50;;;;;;5027049;28;20047;-68
2023/09/25 11:52:47;;;;;;;3.03;1.40;;;20.20;73.00;;;;;;5027962;28;20045;-67
2023/09/25 11:55:17;;;;;;;3.40;1.67;;;20.20;72.50;;;;;;5029650;28;20545;-67
2023/09/25 11:57:44;;;;;;;2.67;1.38;;;20.20;72.10;;;;;;5038160;28;20045;-68
2023/09/25 12:00:12;;;;;;;2.90;1.40;;;20.20;71.40;;;;;;5029174;28;20124;-68
2023/09/25 12:02:40;;;;;;;1.98;1.38;;;20.20;72.30;;;;;;5030236;28;20125;-67
2023/09/25 12:05:06;;;;;;;3.58;1.70;;;20.30;71.80;;;;;;5030206;28;20113;-68
2023/09/25 12:07:38;;;;;;;3.33;1.48;;;20.30;71.00;;;;;;5028020;28;20488;-68
2023/09/25 12:10:07;;;;;;;6.03;1.60;;;20.40;71.70;;;;;;5029201;28;20045;-67
2023/09/25 12:12:35;;;;;;;2.53;1.40;;;20.50;72.40;;;;;;5029859;28;20374;-67
2023/09/25 12:15:03;;;;;;;5.57;1.92;;;20.50;71.50;;;;;;5041572;28;20037;-68
2023/09/25 12:17:30;;;;;;;4.35;1.92;;;20.50;70.40;;;;;;5049013;28;20051;-67
2023/09/25 12:19:57;;;;;;;3.65;1.63;;;20.50;70.90;;;;;;5047774;28;20060;-68
2023/09/25 12:22:23;;;;;;;4.50;1.70;;;20.50;70.70;;;;;;5047700;28;20033;-67
2023/09/25 12:24:49;;;;;;;3.92;1.52;;;20.50;69.70;;;;;;5049301;28;20043;-66
2023/09/25 12:27:14;;;;;;;3.30;1.55;;;20.60;70.90;;;;;;5037358;28;20037;-68
2023/09/25 12:29:40;;;;;;;3.25;1.88;;;20.70;69.70;;;;;;5032361;28;20159;-69
2023/09/25 12:32:06;;;;;;;3.58;1.58;;;20.70;69.70;;;;;;5028789;28;20077;-67
2023/09/25 12:34:31;;;;;;;5.28;1.83;;;20.80;69.10;;;;;;5028125;28;20048;-68
2023/09/25 12:36:57;;;;;;;4.18;1.83;;;20.90;69.00;;;;;;5036862;28;20045;-68
2023/09/25 12:39:22;;;;;;;3.30;1.77;;;21.00;67.10;;;;;;5017756;28;20064;-67
2023/09/25 12:41:48;;;;;;;4.50;1.70;;;21.00;67.80;;;;;;5029927;28;20128;-67
2023/09/25 12:44:14;;;;;;;2.67;1.60;;;21.00;68.50;;;;;;5043289;28;20046;-66
2023/09/25 12:46:40;;;;;;;4.82;1.85;;;21.00;68.50;;;;;;5029567;28;20583;-68